Treynor, Iowa
Current Conditions -  °F | °C
As of 10:15 PM on Friday 24 Oct 2014 (Local Time) from KCBF Reporting Station
Clear Clear  
Wind Chill: 63°   Ceiling: Unl
Heat Index: 63°   Visibility: 10mi
Dew Point: 57°   Wind: 5mph
Humidity: 82%   Direction: 320°NW
Pressure: 29.98"   Gusts: NA
Location:  41.23°N, 95.61°W
Report Text: KCBF 250315Z AUTO 32004KT 10SM CLR 17/14 A2998 RMK AO2
Loading
Personal Weather Stations






























Interactive Weather Map
Tropical Storm Tracking
New forecast layout! Learn more

10-Day Weather Forecast

Advertisements
Track Severe Weather on mobile